Time;durP1;ratioP1;P1;durP2;ratioP2;P2;SDS_P1;SDS_P2;PMS_P1;PMS_P2;Temp;Humidity;BMP_temperature;BMP_pressure;BME280_temperature;BME280_humidity;BME280_pressure;Samples;Min_cycle;Max_cycle;Signal;HPM_P1;HPM_P2
2023/03/14 00:00:08;;;;;;;1.53;1.10;;;13.20;99.90;;;;;;5057125;28;20565;-61
2023/03/14 00:02:35;;;;;;;1.70;1.00;;;13.10;99.90;;;;;;5057523;28;20765;-60
2023/03/14 00:05:06;;;;;;;1.53;1.00;;;13.10;99.90;;;;;;5057408;28;20459;-61
2023/03/14 00:07:34;;;;;;;1.50;1.13;;;13.00;99.90;;;;;;5057042;28;20439;-62
2023/03/14 00:10:04;;;;;;;2.47;1.10;;;13.00;99.90;;;;;;5057313;28;20555;-62
2023/03/14 00:12:31;;;;;;;1.40;1.00;;;13.00;99.90;;;;;;5057282;28;20496;-63
2023/03/14 00:14:59;;;;;;;1.63;1.20;;;12.90;99.90;;;;;;5057042;28;20487;-62
2023/03/14 00:17:27;;;;;;;2.00;1.40;;;12.80;99.90;;;;;;5056907;28;20461;-61
2023/03/14 00:19:54;;;;;;;1.87;1.00;;;12.80;99.90;;;;;;5057020;28;20469;-62
2023/03/14 00:22:21;;;;;;;1.77;1.50;;;12.80;99.90;;;;;;5056975;28;20459;-63
2023/03/14 00:24:48;;;;;;;1.53;1.00;;;12.80;99.90;;;;;;5057023;28;20554;-61
2023/03/14 00:27:15;;;;;;;2.10;1.20;;;12.70;99.90;;;;;;5056560;28;20971;-63
2023/03/14 00:29:44;;;;;;;2.60;1.40;;;12.60;99.90;;;;;;5056899;28;20455;-62
2023/03/14 00:32:11;;;;;;;1.80;1.20;;;12.60;99.90;;;;;;5056428;28;20459;-63
2023/03/14 00:34:39;;;;;;;2.53;1.00;;;12.60;99.90;;;;;;5056664;28;20458;-62
2023/03/14 00:37:06;;;;;;;2.00;1.30;;;12.60;99.90;;;;;;5056477;28;20542;-62
2023/03/14 00:39:33;;;;;;;1.47;1.20;;;12.50;99.90;;;;;;5056708;28;20547;-62
2023/03/14 00:42:00;;;;;;;1.50;1.03;;;12.50;99.90;;;;;;5056485;28;20469;-60
2023/03/14 00:44:27;;;;;;;1.77;1.40;;;12.50;99.90;;;;;;5056418;28;20554;-60
2023/03/14 00:46:54;;;;;;;1.90;1.50;;;12.40;99.90;;;;;;5056605;28;20479;-60
2023/03/14 00:49:20;;;;;;;2.20;1.40;;;12.40;99.90;;;;;;5056645;28;20852;-62
2023/03/14 00:51:49;;;;;;;2.10;1.30;;;12.30;99.90;;;;;;5056204;28;20465;-57
2023/03/14 00:54:15;;;;;;;3.60;1.30;;;12.30;99.90;;;;;;5056198;28;20466;-62
2023/03/14 00:56:42;;;;;;;2.23;1.20;;;12.30;99.90;;;;;;5056490;28;20451;-62
2023/03/14 00:59:09;;;;;;;2.37;1.17;;;12.30;99.90;;;;;;5056126;28;20550;-61
2023/03/14 01:01:36;;;;;;;2.13;1.10;;;12.30;99.90;;;;;;5056303;28;20451;-63
2023/03/14 01:04:03;;;;;;;1.90;1.20;;;12.20;99.90;;;;;;5056006;28;20455;-61
2023/03/14 01:06:30;;;;;;;1.73;1.30;;;12.20;99.90;;;;;;5055501;28;20566;-62
2023/03/14 01:08:59;;;;;;;4.70;1.30;;;12.20;99.90;;;;;;5055929;28;20546;-61
2023/03/14 01:11:28;;;;;;;2.43;1.30;;;12.10;99.90;;;;;;5055941;28;20456;-60
2023/03/14 01:13:55;;;;;;;2.93;1.07;;;12.00;99.90;;;;;;5055853;28;20459;-62
2023/03/14 01:16:24;;;;;;;2.50;1.10;;;12.00;99.90;;;;;;5056272;28;20830;-62
2023/03/14 01:18:51;;;;;;;1.50;1.20;;;12.00;99.90;;;;;;5056246;28;20455;-62
2023/03/14 01:21:20;;;;;;;1.70;1.30;;;12.10;99.90;;;;;;5055564;28;20521;-61
2023/03/14 01:23:49;;;;;;;1.90;1.30;;;12.10;99.90;;;;;;5055862;28;20780;-61
2023/03/14 01:26:19;;;;;;;2.07;1.30;;;12.10;99.90;;;;;;5055754;28;20479;-62
2023/03/14 01:28:47;;;;;;;2.10;1.20;;;12.10;99.90;;;;;;5055709;28;20459;-63
2023/03/14 01:31:14;;;;;;;1.80;1.07;;;12.10;99.90;;;;;;5055588;28;20465;-61
2023/03/14 01:33:41;;;;;;;2.17;1.30;;;12.00;99.90;;;;;;5055584;28;20537;-61
2023/03/14 01:36:10;;;;;;;1.50;1.10;;;11.90;99.90;;;;;;5055595;28;20717;-61
2023/03/14 01:38:38;;;;;;;1.90;1.13;;;11.90;99.90;;;;;;5055218;28;20931;-61
2023/03/14 01:41:06;;;;;;;3.00;1.27;;;11.90;99.90;;;;;;5055199;28;20546;-61
2023/03/14 01:43:34;;;;;;;2.80;1.50;;;12.00;99.90;;;;;;5055508;28;20789;-60
2023/03/14 01:46:27;;;;;;;1.77;1.07;;;12.10;99.90;;;;;;5055360;28;20480;-62
2023/03/14 01:49:02;;;;;;;2.20;1.03;;;12.00;99.90;;;;;;5051368;28;20450;-60
2023/03/14 01:51:34;;;;;;;1.77;1.00;;;12.00;99.90;;;;;;5055165;28;20449;-61
2023/03/14 01:54:07;;;;;;;2.43;1.10;;;12.00;99.90;;;;;;5055249;28;20439;-60
2023/03/14 01:56:34;;;;;;;2.07;0.83;;;12.10;99.90;;;;;;5055562;28;20511;-62
2023/03/14 01:59:07;;;;;;;3.10;1.13;;;12.10;99.90;;;;;;5055337;28;20451;-62
2023/03/14 02:01:35;;;;;;;1.47;1.10;;;12.10;99.90;;;;;;5055351;28;20450;-62
2023/03/14 02:04:06;;;;;;;1.50;1.10;;;12.00;99.90;;;;;;5055114;28;20451;-60
2023/03/14 02:06:40;;;;;;;1.60;1.27;;;11.90;99.90;;;;;;5055498;28;20477;-61
2023/03/14 02:09:06;;;;;;;4.03;1.40;;;11.90;99.90;;;;;;5055000;28;20444;-62
2023/03/14 02:11:34;;;;;;;1.57;1.00;;;11.90;99.90;;;;;;5055166;28;20469;-61
2023/03/14 02:14:03;;;;;;;1.40;1.10;;;11.90;99.90;;;;;;5054599;28;20462;-60
2023/03/14 02:16:31;;;;;;;2.07;1.20;;;11.90;99.90;;;;;;5054938;28;20703;-60
2023/03/14 02:18:58;;;;;;;2.20;1.20;;;11.90;99.90;;;;;;5055200;28;20803;-62
2023/03/14 02:21:38;;;;;;;1.73;1.13;;;11.90;99.90;;;;;;5054873;28;20455;-62
2023/03/14 02:24:10;;;;;;;1.80;0.97;;;11.80;99.90;;;;;;5055548;28;20509;-62
2023/03/14 02:26:42;;;;;;;1.80;1.20;;;11.90;99.90;;;;;;5054923;28;20473;-62
2023/03/14 02:29:11;;;;;;;2.10;1.10;;;11.90;99.90;;;;;;5054779;28;20908;-61
2023/03/14 02:31:38;;;;;;;1.93;1.10;;;11.90;99.90;;;;;;5054830;28;20455;-63
2023/03/14 02:34:05;;;;;;;2.17;1.03;;;11.90;99.90;;;;;;5054704;28;20562;-60
2023/03/14 02:36:32;;;;;;;1.60;1.10;;;11.90;99.90;;;;;;5055116;28;20455;-63
2023/03/14 02:39:08;;;;;;;2.50;1.13;;;12.00;99.90;;;;;;5055254;28;20498;-62
2023/03/14 02:41:35;;;;;;;2.33;1.00;;;12.00;99.90;;;;;;5054531;28;20439;-64
2023/03/14 02:44:02;;;;;;;1.50;1.10;;;12.00;99.90;;;;;;5055552;28;20933;-62
2023/03/14 02:46:31;;;;;;;2.13;1.10;;;12.00;99.90;;;;;;5055183;28;20479;-60
2023/03/14 02:49:02;;;;;;;2.13;1.00;;;12.00;99.90;;;;;;5038748;28;20543;-63
2023/03/14 02:51:30;;;;;;;1.80;1.10;;;11.90;99.90;;;;;;5035068;28;20570;-62
2023/03/14 02:53:57;;;;;;;1.40;1.00;;;11.90;99.90;;;;;;5034558;28;20794;-63
2023/03/14 02:56:24;;;;;;;2.23;1.10;;;11.90;99.90;;;;;;5034685;28;20448;-61
2023/03/14 02:58:51;;;;;;;1.53;1.40;;;11.80;99.90;;;;;;5034633;28;20769;-61
2023/03/14 03:01:18;;;;;;;1.70;1.20;;;11.80;99.90;;;;;;5034701;28;20852;-62
2023/03/14 03:03:46;;;;;;;1.50;0.90;;;11.80;99.90;;;;;;5034504;28;20525;-62
2023/03/14 03:06:13;;;;;;;1.50;1.13;;;11.80;99.90;;;;;;5034315;28;20551;-62
2023/03/14 03:08:40;;;;;;;2.47;1.00;;;11.90;99.90;;;;;;5034527;28;20794;-62
2023/03/14 03:11:07;;;;;;;1.70;0.90;;;11.80;99.90;;;;;;5034289;28;20788;-61
2023/03/14 03:13:34;;;;;;;3.20;1.00;;;11.70;99.90;;;;;;5034058;28;20466;-62
2023/03/14 03:16:01;;;;;;;2.80;1.00;;;11.70;99.90;;;;;;5033929;28;20492;-62
2023/03/14 03:18:28;;;;;;;1.70;1.10;;;11.70;99.90;;;;;;5034317;28;20460;-61
2023/03/14 03:20:56;;;;;;;1.60;0.80;;;11.70;99.90;;;;;;5034514;28;20796;-62
2023/03/14 03:23:23;;;;;;;2.20;1.00;;;11.70;99.90;;;;;;5034630;28;20546;-61
2023/03/14 03:25:51;;;;;;;1.77;1.13;;;11.70;99.90;;;;;;5034692;28;20861;-62
2023/03/14 03:28:17;;;;;;;2.13;0.90;;;11.70;99.90;;;;;;5035882;28;20839;-62
2023/03/14 03:30:45;;;;;;;1.40;0.90;;;11.70;99.90;;;;;;5041212;28;20462;-62
2023/03/14 03:33:13;;;;;;;1.80;1.10;;;11.70;99.90;;;;;;5058167;28;20795;-61
2023/03/14 03:35:44;;;;;;;2.90;0.90;;;11.70;99.90;;;;;;5057826;28;20919;-62
2023/03/14 03:38:13;;;;;;;1.43;1.10;;;11.70;99.90;;;;;;5057667;28;20455;-59
2023/03/14 03:40:40;;;;;;;2.57;1.17;;;11.70;99.90;;;;;;5057918;28;20915;-63
2023/03/14 03:43:07;;;;;;;2.30;0.97;;;11.70;99.90;;;;;;5057757;28;20454;-64
2023/03/14 03:45:33;;;;;;;1.63;1.10;;;11.70;99.90;;;;;;5058096;28;20451;-61
2023/03/14 03:48:00;;;;;;;1.70;1.00;;;11.70;99.90;;;;;;5057910;28;20493;-61
2023/03/14 03:50:27;;;;;;;4.97;0.90;;;11.70;99.90;;;;;;5057304;28;20465;-62
2023/03/14 03:52:54;;;;;;;1.40;1.10;;;11.70;99.90;;;;;;5057984;28;20458;-60
2023/03/14 03:55:22;;;;;;;1.20;0.73;;;11.70;99.90;;;;;;5057405;28;20943;-61
2023/03/14 03:57:49;;;;;;;1.83;0.90;;;11.70;99.90;;;;;;5057787;28;20790;-61
2023/03/14 04:00:16;;;;;;;3.00;1.20;;;11.60;99.90;;;;;;5057471;28;20554;-61
2023/03/14 04:02:43;;;;;;;3.40;1.20;;;11.50;99.90;;;;;;5057654;28;20467;-61
2023/03/14 04:05:10;;;;;;;2.07;1.27;;;11.60;99.90;;;;;;5057332;28;20455;-59
2023/03/14 04:07:37;;;;;;;2.07;0.90;;;11.50;99.90;;;;;;5057412;28;20478;-62
2023/03/14 04:10:05;;;;;;;1.87;0.93;;;11.50;99.90;;;;;;5057787;28;20927;-63
2023/03/14 04:12:33;;;;;;;2.10;0.97;;;11.50;99.90;;;;;;5057902;28;20486;-63
2023/03/14 04:15:00;;;;;;;1.67;1.00;;;11.50;99.90;;;;;;5057347;28;20569;-63
2023/03/14 04:17:27;;;;;;;1.80;1.00;;;11.50;99.90;;;;;;5057396;28;20824;-64
2023/03/14 04:19:53;;;;;;;1.50;1.00;;;11.60;99.90;;;;;;5057306;28;20537;-61
2023/03/14 04:22:20;;;;;;;1.63;0.97;;;11.60;99.90;;;;;;5057232;28;20542;-62
2023/03/14 04:24:47;;;;;;;1.40;1.00;;;11.50;99.90;;;;;;5057016;28;20774;-62
2023/03/14 04:27:15;;;;;;;1.80;0.90;;;11.50;99.90;;;;;;5057048;28;20634;-63
2023/03/14 04:29:43;;;;;;;1.90;1.00;;;11.50;99.90;;;;;;5056966;28;20459;-61
2023/03/14 04:32:11;;;;;;;1.50;0.97;;;11.50;99.90;;;;;;5056907;28;20887;-62
2023/03/14 04:34:38;;;;;;;2.80;0.90;;;11.50;99.90;;;;;;5056815;28;20470;-63
2023/03/14 04:37:04;;;;;;;2.80;1.10;;;11.60;99.90;;;;;;5056927;28;20765;-63
2023/03/14 04:39:31;;;;;;;2.30;1.13;;;11.50;99.90;;;;;;5055433;28;20459;-62
2023/03/14 04:41:58;;;;;;;3.17;1.10;;;11.60;99.90;;;;;;5056949;28;20552;-63
2023/03/14 04:44:25;;;;;;;1.60;1.00;;;11.50;99.90;;;;;;5056682;28;20784;-62
2023/03/14 04:46:53;;;;;;;1.90;1.10;;;11.50;99.90;;;;;;5056550;28;20489;-62
2023/03/14 04:49:20;;;;;;;1.83;1.00;;;11.50;99.90;;;;;;5056987;28;20531;-63
2023/03/14 04:51:47;;;;;;;4.70;1.00;;;11.50;99.90;;;;;;5056676;28;20546;-60
2023/03/14 04:54:14;;;;;;;2.53;1.10;;;11.50;99.90;;;;;;5056445;28;20946;-64
2023/03/14 04:56:40;;;;;;;1.40;0.90;;;11.50;99.90;;;;;;5056651;28;20542;-62
2023/03/14 04:59:08;;;;;;;2.23;0.80;;;11.50;99.90;;;;;;5057171;28;20912;-61
2023/03/14 05:01:35;;;;;;;1.40;0.90;;;11.50;99.90;;;;;;5056379;28;20550;-64
2023/03/14 05:04:03;;;;;;;1.80;1.40;;;11.50;99.90;;;;;;5056130;28;20465;-61
2023/03/14 05:06:30;;;;;;;1.50;1.20;;;11.50;99.90;;;;;;5056091;28;20455;-63
2023/03/14 05:08:57;;;;;;;1.70;1.00;;;11.50;99.90;;;;;;5056101;28;20483;-62
2023/03/14 05:11:24;;;;;;;1.50;1.00;;;11.50;99.90;;;;;;5056503;28;20459;-61
2023/03/14 05:13:50;;;;;;;1.93;1.17;;;11.60;99.90;;;;;;5056115;28;20462;-61
2023/03/14 05:16:17;;;;;;;1.43;1.03;;;11.50;99.90;;;;;;5056307;28;20449;-62
2023/03/14 05:18:44;;;;;;;1.40;1.00;;;11.50;99.90;;;;;;5057146;28;20461;-61
2023/03/14 05:21:12;;;;;;;2.07;1.03;;;11.50;99.90;;;;;;5056351;28;20546;-63
2023/03/14 05:23:39;;;;;;;2.90;1.33;;;11.50;99.90;;;;;;5056244;28;20490;-63
2023/03/14 05:26:07;;;;;;;1.50;1.00;;;11.50;99.90;;;;;;5056060;28;20578;-62
2023/03/14 05:28:33;;;;;;;1.47;1.10;;;11.50;99.90;;;;;;5055904;28;20494;-63
2023/03/14 05:31:00;;;;;;;2.40;1.50;;;11.50;99.90;;;;;;5055712;28;20770;-61
2023/03/14 05:33:27;;;;;;;2.00;1.13;;;11.50;99.90;;;;;;5055605;28;20466;-62
2023/03/14 05:35:54;;;;;;;1.60;1.20;;;11.50;99.90;;;;;;5055527;28;20461;-62
2023/03/14 05:38:22;;;;;;;5.73;1.20;;;11.50;99.90;;;;;;5056199;28;20451;-66
2023/03/14 05:40:49;;;;;;;1.60;1.03;;;11.50;99.90;;;;;;5056073;28;20534;-67
2023/03/14 05:43:16;;;;;;;1.40;1.00;;;11.50;99.90;;;;;;5056227;28;20454;-66
2023/03/14 05:45:43;;;;;;;1.97;1.00;;;11.50;99.90;;;;;;5057391;28;20463;-65
2023/03/14 05:48:10;;;;;;;2.17;1.50;;;11.50;99.90;;;;;;5055991;28;20577;-66
2023/03/14 05:50:37;;;;;;;1.93;1.33;;;11.50;99.90;;;;;;5056210;28;20459;-66
2023/03/14 05:53:04;;;;;;;1.40;1.03;;;11.50;99.90;;;;;;5056014;28;20465;-65
2023/03/14 05:55:33;;;;;;;1.50;1.07;;;11.50;99.90;;;;;;5055916;28;20469;-65
2023/03/14 05:57:59;;;;;;;1.90;1.00;;;11.50;99.90;;;;;;5055983;28;20465;-66
2023/03/14 06:00:26;;;;;;;3.10;1.30;;;11.50;99.90;;;;;;5056494;28;20454;-67
2023/03/14 06:02:53;;;;;;;1.60;1.30;;;11.40;99.90;;;;;;5056221;28;20553;-66
2023/03/14 06:05:20;;;;;;;2.87;1.10;;;11.50;99.90;;;;;;5056939;28;20455;-65
2023/03/14 06:07:47;;;;;;;2.80;1.20;;;11.50;99.90;;;;;;5056432;28;20479;-66
2023/03/14 06:10:14;;;;;;;1.33;1.03;;;11.50;99.90;;;;;;5056773;28;20546;-66
2023/03/14 06:12:42;;;;;;;3.23;1.27;;;11.50;99.90;;;;;;5056118;28;20463;-64
2023/03/14 06:15:10;;;;;;;3.83;1.30;;;11.50;99.90;;;;;;5056626;28;20570;-66
2023/03/14 06:17:36;;;;;;;2.73;1.40;;;11.50;99.90;;;;;;5056308;28;20483;-65
2023/03/14 06:20:04;;;;;;;1.77;1.00;;;11.60;99.90;;;;;;5056251;28;20487;-65
2023/03/14 06:22:30;;;;;;;1.43;1.03;;;11.60;99.90;;;;;;5056402;28;20455;-65
2023/03/14 06:24:57;;;;;;;6.37;1.23;;;11.60;99.90;;;;;;5055757;28;20525;-65
2023/03/14 06:27:24;;;;;;;1.20;0.90;;;11.60;99.90;;;;;;5056154;28;20569;-66
2023/03/14 06:29:52;;;;;;;4.43;1.50;;;11.60;99.90;;;;;;5055663;28;20942;-66
2023/03/14 06:32:20;;;;;;;2.30;1.20;;;11.60;99.90;;;;;;5055595;28;20459;-66
2023/03/14 06:34:47;;;;;;;1.40;1.00;;;11.60;99.90;;;;;;5056232;28;20516;-65
2023/03/14 06:37:14;;;;;;;2.30;1.20;;;11.60;99.90;;;;;;5055846;28;20455;-66
2023/03/14 06:39:41;;;;;;;2.97;1.37;;;11.60;99.90;;;;;;5056213;28;20486;-65
2023/03/14 06:42:08;;;;;;;2.80;1.13;;;11.60;99.90;;;;;;5055851;28;20459;-66
2023/03/14 06:44:35;;;;;;;1.60;1.03;;;11.70;99.90;;;;;;5054871;28;20928;-66
2023/03/14 06:47:03;;;;;;;3.47;1.60;;;11.70;99.90;;;;;;5055521;28;20509;-66
2023/03/14 06:49:30;;;;;;;3.10;1.20;;;11.70;99.90;;;;;;5055702;28;20509;-65
2023/03/14 06:51:57;;;;;;;2.97;1.23;;;11.80;99.90;;;;;;5055232;28;20546;-65
2023/03/14 06:54:24;;;;;;;1.83;1.20;;;11.90;99.90;;;;;;5055045;28;20466;-66
2023/03/14 06:56:51;;;;;;;2.70;1.37;;;11.90;99.90;;;;;;5055276;28;20530;-65
2023/03/14 06:59:17;;;;;;;2.47;1.40;;;11.90;99.90;;;;;;5055691;28;20542;-64
2023/03/14 07:01:44;;;;;;;2.77;1.40;;;12.00;99.90;;;;;;5055650;28;20538;-65
2023/03/14 07:04:13;;;;;;;4.87;1.80;;;12.00;99.90;;;;;;5058401;28;20554;-65
2023/03/14 07:06:43;;;;;;;3.07;1.53;;;12.00;99.90;;;;;;5058220;28;20547;-65
2023/03/14 07:09:11;;;;;;;3.07;1.23;;;12.10;99.90;;;;;;5052709;28;20969;-65
2023/03/14 07:11:38;;;;;;;1.70;1.03;;;12.10;99.90;;;;;;5058985;28;20970;-65
2023/03/14 07:14:05;;;;;;;2.77;1.27;;;12.20;99.90;;;;;;5059147;28;20573;-65
2023/03/14 07:16:32;;;;;;;3.33;1.43;;;12.20;99.90;;;;;;5058628;28;20465;-66
2023/03/14 07:19:00;;;;;;;4.20;1.50;;;12.20;99.90;;;;;;5056745;28;20451;-64
2023/03/14 07:21:28;;;;;;;3.70;1.37;;;12.20;99.90;;;;;;5059119;28;20483;-65
2023/03/14 07:23:55;;;;;;;2.10;1.40;;;12.10;99.90;;;;;;5059257;28;20468;-67
2023/03/14 07:26:22;;;;;;;2.67;1.20;;;12.00;99.90;;;;;;5059603;28;20446;-67
2023/03/14 07:28:49;;;;;;;7.80;1.20;;;12.00;99.90;;;;;;5051013;28;20487;-66
2023/03/14 07:31:16;;;;;;;2.93;2.23;;;12.10;99.90;;;;;;5039883;28;20455;-66
2023/03/14 07:33:43;;;;;;;2.33;1.20;;;12.10;99.90;;;;;;5039690;28;20989;-66
2023/03/14 07:36:10;;;;;;;2.53;1.20;;;12.10;99.90;;;;;;5039256;28;20452;-67
2023/03/14 07:38:38;;;;;;;5.20;1.33;;;12.00;99.90;;;;;;5039437;28;20452;-65
2023/03/14 07:41:06;;;;;;;4.00;1.30;;;12.10;99.90;;;;;;5039857;28;20787;-65
2023/03/14 07:43:34;;;;;;;1.63;1.00;;;12.10;99.90;;;;;;5039544;28;20455;-66
2023/03/14 07:46:01;;;;;;;2.47;1.03;;;12.00;99.90;;;;;;5039462;28;20466;-65
2023/03/14 07:48:28;;;;;;;3.50;1.50;;;12.00;99.90;;;;;;5039590;28;20550;-65
2023/03/14 07:50:55;;;;;;;2.80;1.37;;;12.00;99.90;;;;;;5039559;28;20482;-65
2023/03/14 07:53:23;;;;;;;5.50;1.33;;;12.00;99.90;;;;;;5039347;28;20570;-66
2023/03/14 07:55:52;;;;;;;3.40;1.13;;;12.00;99.90;;;;;;5038944;28;20550;-65
2023/03/14 07:58:19;;;;;;;3.40;1.40;;;12.00;99.90;;;;;;5039097;28;20466;-65
2023/03/14 08:00:46;;;;;;;4.60;1.37;;;12.00;99.90;;;;;;5039384;28;20460;-66
2023/03/14 08:03:13;;;;;;;4.07;1.70;;;12.10;99.90;;;;;;5038380;28;20543;-65
2023/03/14 08:05:41;;;;;;;3.00;1.30;;;12.10;99.90;;;;;;5038846;28;20536;-65
2023/03/14 08:08:08;;;;;;;4.33;1.30;;;12.20;99.90;;;;;;5038779;28;20782;-67
2023/03/14 08:10:36;;;;;;;3.13;1.20;;;12.20;99.90;;;;;;5038829;28;20455;-66
2023/03/14 08:13:04;;;;;;;4.90;1.53;;;12.30;99.90;;;;;;5038639;28;20460;-60
2023/03/14 08:15:31;;;;;;;3.10;1.23;;;12.30;99.90;;;;;;5037439;28;20957;-61
2023/03/14 08:17:59;;;;;;;2.20;1.30;;;12.30;99.90;;;;;;5038217;28;20943;-60
2023/03/14 08:20:29;;;;;;;2.90;1.73;;;12.40;99.90;;;;;;5037119;28;20448;-62
2023/03/14 08:22:57;;;;;;;4.57;1.30;;;12.50;99.90;;;;;;5037302;28;21008;-60
2023/03/14 08:25:24;;;;;;;3.30;1.50;;;12.50;99.90;;;;;;5037655;28;20770;-63
2023/03/14 08:27:51;;;;;;;5.93;2.43;;;12.70;99.90;;;;;;5036860;28;20456;-63
2023/03/14 08:30:21;;;;;;;2.23;1.60;;;12.70;99.90;;;;;;5036887;28;20526;-60
2023/03/14 08:32:48;;;;;;;3.33;1.20;;;12.70;99.90;;;;;;5036921;28;20452;-61
2023/03/14 08:35:15;;;;;;;3.10;1.33;;;12.70;99.90;;;;;;5036827;28;20946;-61
2023/03/14 08:37:42;;;;;;;4.50;1.90;;;12.70;99.90;;;;;;5036783;28;20455;-61
2023/03/14 08:40:11;;;;;;;2.80;1.13;;;12.70;99.90;;;;;;5036647;28;20507;-60
2023/03/14 08:42:38;;;;;;;6.13;1.70;;;12.70;99.90;;;;;;5036837;28;20794;-62
2023/03/14 08:45:07;;;;;;;3.73;1.40;;;12.70;99.90;;;;;;5036660;28;20460;-62
2023/03/14 08:47:36;;;;;;;4.33;1.30;;;12.70;99.90;;;;;;5036738;28;20550;-62
2023/03/14 08:50:03;;;;;;;2.80;1.27;;;12.70;99.90;;;;;;5036518;28;20496;-62
2023/03/14 08:52:31;;;;;;;3.67;1.47;;;12.70;99.90;;;;;;5036592;28;20467;-62
2023/03/14 08:54:58;;;;;;;3.67;1.73;;;12.60;99.90;;;;;;5036312;28;20530;-62
2023/03/14 08:57:27;;;;;;;1.97;1.20;;;12.60;99.90;;;;;;5036242;28;20543;-61
2023/03/14 08:59:54;;;;;;;3.90;1.43;;;12.70;99.90;;;;;;5036134;28;20908;-59
2023/03/14 09:02:21;;;;;;;3.73;1.10;;;12.70;99.90;;;;;;5036328;28;20460;-60
2023/03/14 09:04:51;;;;;;;3.57;1.30;;;12.60;99.90;;;;;;5036231;28;20629;-61
2023/03/14 09:07:18;;;;;;;8.27;1.50;;;12.50;99.90;;;;;;5036254;28;20521;-61
2023/03/14 09:09:45;;;;;;;3.00;1.40;;;12.50;99.90;;;;;;5036321;28;20494;-62
2023/03/14 09:12:12;;;;;;;2.60;1.20;;;12.60;99.90;;;;;;5036203;28;20799;-62
2023/03/14 09:14:39;;;;;;;4.30;1.33;;;12.60;99.90;;;;;;5035862;28;20498;-62
2023/03/14 09:17:06;;;;;;;3.50;1.10;;;12.80;99.90;;;;;;5035895;28;20464;-62
2023/03/14 09:19:33;;;;;;;5.43;1.30;;;13.00;99.90;;;;;;5035820;28;20456;-62
2023/03/14 09:22:01;;;;;;;3.50;2.30;;;13.00;99.90;;;;;;5035738;28;20460;-60
2023/03/14 09:24:28;;;;;;;2.37;1.20;;;13.00;99.90;;;;;;5036159;28;20471;-61
2023/03/14 09:26:56;;;;;;;3.10;1.40;;;13.00;99.90;;;;;;5036182;28;20456;-62
2023/03/14 09:29:24;;;;;;;2.93;1.10;;;13.10;99.90;;;;;;5036407;28;20495;-64
2023/03/14 09:31:51;;;;;;;1.97;1.10;;;13.10;99.90;;;;;;5036819;28;20858;-62
2023/03/14 09:34:18;;;;;;;5.33;1.00;;;13.10;99.90;;;;;;5035803;28;20466;-62
2023/03/14 09:36:45;;;;;;;1.97;1.20;;;13.20;99.90;;;;;;5036317;28;20526;-63
2023/03/14 09:39:13;;;;;;;4.40;1.20;;;13.30;99.90;;;;;;5036309;28;20452;-63
2023/03/14 09:41:43;;;;;;;7.90;1.30;;;13.30;99.90;;;;;;5036155;28;20487;-61
2023/03/14 09:44:15;;;;;;;3.10;0.90;;;13.40;99.90;;;;;;5035911;28;20519;-60
2023/03/14 09:46:47;;;;;;;3.10;1.53;;;13.60;99.90;;;;;;5035821;28;20476;-62
2023/03/14 09:49:20;;;;;;;3.23;1.20;;;13.80;99.90;;;;;;5035866;28;20791;-62
2023/03/14 09:51:50;;;;;;;5.27;1.70;;;13.80;99.90;;;;;;5035732;28;20456;-63
2023/03/14 09:54:31;;;;;;;4.23;1.10;;;13.80;99.90;;;;;;5036432;28;20460;-61
2023/03/14 09:56:58;;;;;;;3.20;0.90;;;13.70;99.90;;;;;;5035533;28;20444;-62
2023/03/14 09:59:26;;;;;;;1.87;1.07;;;13.70;99.90;;;;;;5035469;28;20557;-60
2023/03/14 10:01:54;;;;;;;2.80;1.50;;;13.70;99.90;;;;;;5035699;28;20468;-62
2023/03/14 10:04:23;;;;;;;4.47;1.13;;;13.60;99.90;;;;;;5035480;28;20928;-63
2023/03/14 10:06:50;;;;;;;5.90;1.67;;;13.60;99.90;;;;;;5035210;28;20483;-62
2023/03/14 10:09:24;;;;;;;2.40;1.13;;;13.60;99.90;;;;;;5034606;28;20836;-62
2023/03/14 10:11:54;;;;;;;2.37;0.97;;;13.60;99.90;;;;;;5035366;28;20443;-62
2023/03/14 10:14:31;;;;;;;2.23;1.30;;;13.60;99.90;;;;;;5035037;28;20817;-61
2023/03/14 10:17:07;;;;;;;3.23;1.50;;;13.60;99.90;;;;;;5034770;28;20452;-60
2023/03/14 10:19:35;;;;;;;3.20;1.20;;;13.60;99.90;;;;;;5035288;28;20833;-62
2023/03/14 10:22:03;;;;;;;2.70;1.23;;;13.60;99.90;;;;;;5035719;28;20519;-60
2023/03/14 10:24:33;;;;;;;3.23;1.33;;;13.70;99.90;;;;;;5035207;28;20975;-61
2023/03/14 10:27:02;;;;;;;2.93;0.90;;;13.70;99.90;;;;;;5035283;28;20811;-61
2023/03/14 10:29:30;;;;;;;5.50;1.30;;;13.70;99.90;;;;;;5034898;28;20490;-63
2023/03/14 10:32:01;;;;;;;2.50;1.10;;;13.70;99.90;;;;;;5034752;28;20456;-61
2023/03/14 10:34:30;;;;;;;4.13;1.17;;;13.70;99.90;;;;;;5034718;28;20889;-60
2023/03/14 10:36:59;;;;;;;7.13;1.10;;;13.80;99.90;;;;;;5034732;28;20555;-61
2023/03/14 10:39:33;;;;;;;2.63;1.20;;;13.70;99.90;;;;;;5034573;28;20464;-62
2023/03/14 10:42:06;;;;;;;3.63;1.30;;;13.70;99.90;;;;;;5035052;28;20487;-62
2023/03/14 10:44:35;;;;;;;4.40;1.13;;;13.70;99.90;;;;;;5035884;28;20901;-61
2023/03/14 10:47:04;;;;;;;3.80;1.20;;;13.70;99.90;;;;;;5035185;28;20851;-61
2023/03/14 10:49:32;;;;;;;2.90;0.97;;;13.70;99.90;;;;;;5034954;28;20484;-61
2023/03/14 10:52:13;;;;;;;1.70;0.90;;;13.70;99.90;;;;;;5035092;28;20544;-60
2023/03/14 10:54:44;;;;;;;2.83;1.10;;;13.70;99.90;;;;;;5034865;28;20462;-57
2023/03/14 10:57:12;;;;;;;4.03;0.93;;;13.60;99.90;;;;;;5034458;28;20448;-60
2023/03/14 10:59:42;;;;;;;3.37;1.40;;;13.60;99.90;;;;;;5035079;28;20466;-62
2023/03/14 11:02:29;;;;;;;3.00;1.00;;;13.60;99.90;;;;;;5034404;28;20459;-61
2023/03/14 11:05:05;;;;;;;1.60;0.90;;;13.50;99.90;;;;;;5034608;28;20512;-63
2023/03/14 11:07:37;;;;;;;4.50;2.57;;;13.60;99.90;;;;;;5034186;28;20448;-61
2023/03/14 11:10:15;;;;;;;10.73;1.00;;;13.60;99.90;;;;;;5034425;28;20494;-62
2023/03/14 11:12:50;;;;;;;2.60;0.90;;;13.60;99.90;;;;;;5034570;28;20875;-61
2023/03/14 11:15:21;;;;;;;4.37;1.00;;;13.60;99.90;;;;;;5034134;28;20568;-60
2023/03/14 11:18:00;;;;;;;3.63;1.10;;;13.60;99.90;;;;;;5044385;28;20465;-61
2023/03/14 11:20:37;;;;;;;1.53;0.80;;;13.60;99.90;;;;;;5054987;28;20450;-62
2023/03/14 11:23:13;;;;;;;2.03;1.00;;;13.60;99.90;;;;;;5054158;28;20836;-62
2023/03/14 11:25:49;;;;;;;8.10;1.43;;;13.60;99.90;;;;;;5054349;28;20482;-63
2023/03/14 11:28:20;;;;;;;2.33;0.93;;;13.70;99.90;;;;;;5054029;28;20443;-62
2023/03/14 11:30:53;;;;;;;1.50;1.03;;;13.70;99.90;;;;;;5054104;28;20499;-64
2023/03/14 11:33:26;;;;;;;2.83;1.07;;;13.70;99.90;;;;;;5054367;28;20451;-63
2023/03/14 11:36:00;;;;;;;1.47;1.00;;;13.70;99.90;;;;;;5054249;28;20443;-63
2023/03/14 11:38:32;;;;;;;2.80;1.13;;;13.80;99.90;;;;;;5054440;28;20438;-64
2023/03/14 11:41:02;;;;;;;3.30;1.33;;;13.80;99.90;;;;;;5054038;28;20471;-63
2023/03/14 11:43:31;;;;;;;2.80;1.33;;;13.60;99.90;;;;;;5054007;28;20459;-61
2023/03/14 11:46:05;;;;;;;3.63;1.00;;;13.60;99.90;;;;;;5053936;28;20459;-60
2023/03/14 11:48:39;;;;;;;6.63;1.13;;;13.60;99.90;;;;;;5054199;28;20454;-60
2023/03/14 11:51:13;;;;;;;3.40;1.07;;;13.70;99.90;;;;;;5057825;28;20490;-62
2023/03/14 11:53:54;;;;;;;2.50;1.40;;;13.70;99.90;;;;;;5057850;28;20443;-62
2023/03/14 11:56:30;;;;;;;3.00;1.60;;;13.70;99.90;;;;;;5057392;28;20462;-61
2023/03/14 11:59:00;;;;;;;2.73;1.20;;;13.70;99.90;;;;;;5057758;28;20522;-61
2023/03/14 12:01:34;;;;;;;1.60;0.90;;;13.70;99.90;;;;;;5057660;28;20484;-62
2023/03/14 12:04:10;;;;;;;2.23;0.73;;;13.60;99.90;;;;;;5057373;28;20449;-62
2023/03/14 12:06:45;;;;;;;6.30;1.07;;;13.60;99.90;;;;;;5058118;28;20769;-61
2023/03/14 12:09:13;;;;;;;6.73;1.00;;;13.70;99.90;;;;;;5057122;28;20939;-61
2023/03/14 12:11:45;;;;;;;2.20;0.80;;;13.70;99.90;;;;;;5057484;28;20455;-61
2023/03/14 12:14:24;;;;;;;1.43;0.80;;;13.70;99.90;;;;;;5057453;28;20483;-63
2023/03/14 12:16:58;;;;;;;1.43;0.90;;;13.80;99.90;;;;;;5057249;28;20450;-62
2023/03/14 12:19:36;;;;;;;4.50;0.90;;;13.90;99.90;;;;;;5058127;28;20440;-62
2023/03/14 12:22:13;;;;;;;1.47;0.93;;;13.90;99.90;;;;;;5057235;28;20443;-62
2023/03/14 12:24:48;;;;;;;4.03;0.97;;;13.90;99.90;;;;;;5057114;28;20493;-63
2023/03/14 12:27:54;;;;;;;1.70;0.90;;;13.80;99.90;;;;;;5057941;28;20444;-64
2023/03/14 12:30:29;;;;;;;1.53;0.90;;;13.70;99.90;;;;;;5057520;28;20467;-63
2023/03/14 12:33:28;;;;;;;1.80;0.97;;;13.70;99.90;;;;;;5057139;28;20439;-64
2023/03/14 12:36:20;;;;;;;2.10;0.70;;;13.80;99.90;;;;;;5057211;28;20448;-63
2023/03/14 12:38:57;;;;;;;1.97;1.00;;;13.80;99.90;;;;;;5024201;28;20459;-64
2023/03/14 12:41:30;;;;;;;1.50;0.90;;;13.80;99.90;;;;;;5057223;28;20449;-62
2023/03/14 12:44:23;;;;;;;1.70;1.10;;;14.00;99.90;;;;;;5057768;28;20443;-62
2023/03/14 12:46:50;;;;;;;2.87;1.33;;;14.00;99.90;;;;;;5055880;28;20455;-63
2023/03/14 12:49:17;;;;;;;3.20;1.33;;;14.30;99.90;;;;;;5056026;28;20546;-64
2023/03/14 12:51:44;;;;;;;3.20;1.07;;;14.30;99.90;;;;;;5055863;28;20532;-64
2023/03/14 12:54:35;;;;;;;1.60;0.90;;;14.30;99.90;;;;;;5055620;28;20463;-62
2023/03/14 12:57:14;;;;;;;2.30;1.00;;;14.30;99.90;;;;;;5056283;28;20447;-63